sensor_id;sensor_type;location;lat;lon;timestamp;pressure;altitude;pressure_sealevel;temperature;humidity
498;BME280;39559;48.630;9.162;2023-02-28T00:01:04;98080.31;;;-3.73;86.48
498;BME280;39559;48.630;9.162;2023-02-28T00:05:24;98079.19;;;-3.84;86.79
498;BME280;39559;48.630;9.162;2023-02-28T00:07:50;98082.00;;;-3.74;86.66
498;BME280;39559;48.630;9.162;2023-02-28T00:10:28;98084.41;;;-3.80;86.67
498;BME280;39559;48.630;9.162;2023-02-28T00:12:55;98083.53;;;-3.80;87.16
498;BME280;39559;48.630;9.162;2023-02-28T00:15:23;98089.47;;;-3.80;87.31
498;BME280;39559;48.630;9.162;2023-02-28T00:17:49;98087.34;;;-3.98;87.48
498;BME280;39559;48.630;9.162;2023-02-28T00:20:15;98081.69;;;-3.86;87.15
498;BME280;39559;48.630;9.162;2023-02-28T00:22:46;98080.88;;;-3.85;88.05
498;BME280;39559;48.630;9.162;2023-02-28T00:25:15;98075.19;;;-3.75;87.68
498;BME280;39559;48.630;9.162;2023-02-28T00:29:25;98076.88;;;-4.10;89.39
498;BME280;39559;48.630;9.162;2023-02-28T00:31:50;98079.56;;;-4.04;90.08
498;BME280;39559;48.630;9.162;2023-02-28T00:34:16;98077.19;;;-3.98;89.24
498;BME280;39559;48.630;9.162;2023-02-28T00:36:41;98075.56;;;-3.96;89.50
498;BME280;39559;48.630;9.162;2023-02-28T00:39:11;98082.72;;;-3.79;88.54
498;BME280;39559;48.630;9.162;2023-02-28T00:41:36;98073.78;;;-3.98;90.08
498;BME280;39559;48.630;9.162;2023-02-28T00:44:02;98077.41;;;-3.89;90.06
498;BME280;39559;48.630;9.162;2023-02-28T00:46:27;98083.22;;;-3.94;90.43
498;BME280;39559;48.630;9.162;2023-02-28T00:48:53;98070.56;;;-3.93;90.09
498;BME280;39559;48.630;9.162;2023-02-28T00:53:27;98077.03;;;-4.04;90.98
498;BME280;39559;48.630;9.162;2023-02-28T00:55:53;98074.88;;;-3.89;90.66
498;BME280;39559;48.630;9.162;2023-02-28T00:58:19;98068.47;;;-4.09;90.92
498;BME280;39559;48.630;9.162;2023-02-28T01:00:44;98069.13;;;-3.81;90.30
498;BME280;39559;48.630;9.162;2023-02-28T01:03:17;98064.78;;;-3.87;90.20
498;BME280;39559;48.630;9.162;2023-02-28T01:05:43;98065.16;;;-4.07;91.39
498;BME280;39559;48.630;9.162;2023-02-28T01:08:09;98058.44;;;-4.05;90.63
498;BME280;39559;48.630;9.162;2023-02-28T01:10:34;98067.63;;;-4.08;90.86
498;BME280;39559;48.630;9.162;2023-02-28T01:13:02;98070.34;;;-4.02;91.13
498;BME280;39559;48.630;9.162;2023-02-28T01:17:29;98068.50;;;-4.08;91.70
498;BME280;39559;48.630;9.162;2023-02-28T01:19:55;98064.56;;;-3.96;91.96
498;BME280;39559;48.630;9.162;2023-02-28T01:22:21;98065.28;;;-4.00;91.04
498;BME280;39559;48.630;9.162;2023-02-28T01:24:46;98061.25;;;-3.92;90.74
498;BME280;39559;48.630;9.162;2023-02-28T01:27:13;98075.00;;;-3.82;91.70
498;BME280;39559;48.630;9.162;2023-02-28T01:29:38;98066.84;;;-4.07;92.06
498;BME280;39559;48.630;9.162;2023-02-28T01:32:04;98065.94;;;-4.08;93.12
498;BME280;39559;48.630;9.162;2023-02-28T01:34:29;98067.13;;;-4.28;93.22
498;BME280;39559;48.630;9.162;2023-02-28T01:36:55;98065.09;;;-4.08;94.10
498;BME280;39559;48.630;9.162;2023-02-28T01:41:34;98058.25;;;-4.12;94.57
498;BME280;39559;48.630;9.162;2023-02-28T01:44:06;98062.91;;;-4.28;93.93
498;BME280;39559;48.630;9.162;2023-02-28T01:46:35;98055.75;;;-4.11;94.40
498;BME280;39559;48.630;9.162;2023-02-28T01:49:08;98062.28;;;-3.86;93.99
498;BME280;39559;48.630;9.162;2023-02-28T01:51:41;98057.09;;;-3.90;94.62
498;BME280;39559;48.630;9.162;2023-02-28T01:54:14;98053.53;;;-3.97;95.19
498;BME280;39559;48.630;9.162;2023-02-28T01:56:51;98054.75;;;-3.81;93.51
498;BME280;39559;48.630;9.162;2023-02-28T01:59:59;98052.75;;;-3.94;96.24
498;BME280;39559;48.630;9.162;2023-02-28T02:02:24;98047.69;;;-3.94;96.23
498;BME280;39559;48.630;9.162;2023-02-28T02:05:36;98039.19;;;-3.96;96.28
498;BME280;39559;48.630;9.162;2023-02-28T02:08:12;98040.13;;;-3.91;95.99
498;BME280;39559;48.630;9.162;2023-02-28T02:10:44;98035.72;;;-3.98;95.84
498;BME280;39559;48.630;9.162;2023-02-28T02:18:53;98029.97;;;-3.91;98.37
498;BME280;39559;48.630;9.162;2023-02-28T02:29:45;98023.06;;;-3.60;97.43
498;BME280;39559;48.630;9.162;2023-02-28T02:40:29;98016.56;;;-3.48;96.38
498;BME280;39559;48.630;9.162;2023-02-28T02:43:19;98012.31;;;-3.50;95.26
498;BME280;39559;48.630;9.162;2023-02-28T02:45:53;98019.88;;;-3.52;96.43
498;BME280;39559;48.630;9.162;2023-02-28T02:48:25;98016.78;;;-3.38;94.96
498;BME280;39559;48.630;9.162;2023-02-28T02:50:58;98012.56;;;-3.38;94.70
498;BME280;39559;48.630;9.162;2023-02-28T02:54:17;98021.13;;;-3.33;95.24
498;BME280;39559;48.630;9.162;2023-02-28T02:56:46;98022.84;;;-3.32;95.75
498;BME280;39559;48.630;9.162;2023-02-28T02:59:16;98024.34;;;-3.41;95.69
498;BME280;39559;48.630;9.162;2023-02-28T03:01:59;98021.06;;;-3.36;96.69
498;BME280;39559;48.630;9.162;2023-02-28T03:04:30;98023.53;;;-3.39;95.80
498;BME280;39559;48.630;9.162;2023-02-28T03:06:57;98022.22;;;-3.21;95.84
498;BME280;39559;48.630;9.162;2023-02-28T03:09:23;98027.25;;;-3.23;96.12
498;BME280;39559;48.630;9.162;2023-02-28T03:11:52;98022.69;;;-3.39;96.17
498;BME280;39559;48.630;9.162;2023-02-28T03:20:52;98030.47;;;-3.32;97.33
498;BME280;39559;48.630;9.162;2023-02-28T03:23:23;98023.69;;;-3.31;96.83
498;BME280;39559;48.630;9.162;2023-02-28T03:26:21;98023.09;;;-3.19;96.74
498;BME280;39559;48.630;9.162;2023-02-28T03:31:40;98014.56;;;-3.23;96.83
498;BME280;39559;48.630;9.162;2023-02-28T03:36:39;98025.56;;;-3.22;98.00
498;BME280;39559;48.630;9.162;2023-02-28T03:41:50;98024.75;;;-3.21;97.15
498;BME280;39559;48.630;9.162;2023-02-28T03:44:24;98019.63;;;-3.23;97.76
498;BME280;39559;48.630;9.162;2023-02-28T03:47:03;98014.44;;;-3.28;99.25
498;BME280;39559;48.630;9.162;2023-02-28T03:50:27;98021.31;;;-3.23;99.94
498;BME280;39559;48.630;9.162;2023-02-28T03:52:50;98006.28;;;-3.14;99.61
498;BME280;39559;48.630;9.162;2023-02-28T03:55:17;98013.25;;;-3.02;97.14
498;BME280;39559;48.630;9.162;2023-02-28T03:57:53;98016.44;;;-3.14;97.87
498;BME280;39559;48.630;9.162;2023-02-28T04:00:28;98010.50;;;-3.13;99.53
498;BME280;39559;48.630;9.162;2023-02-28T04:02:55;98022.53;;;-3.04;98.62
498;BME280;39559;48.630;9.162;2023-02-28T04:05:53;98026.56;;;-3.16;98.49
498;BME280;39559;48.630;9.162;2023-02-28T04:08:20;98028.09;;;-3.22;99.00
498;BME280;39559;48.630;9.162;2023-02-28T04:10:52;98025.53;;;-3.24;100.00
498;BME280;39559;48.630;9.162;2023-02-28T04:13:18;98017.31;;;-3.12;99.11
498;BME280;39559;48.630;9.162;2023-02-28T04:15:44;98016.47;;;-3.13;99.23
498;BME280;39559;48.630;9.162;2023-02-28T04:18:09;98019.28;;;-2.97;99.13
498;BME280;39559;48.630;9.162;2023-02-28T04:20:35;98019.53;;;-3.29;100.00
498;BME280;39559;48.630;9.162;2023-02-28T04:23:00;98031.53;;;-3.20;100.00
498;BME280;39559;48.630;9.162;2023-02-28T04:25:26;98026.44;;;-3.20;100.00
498;BME280;39559;48.630;9.162;2023-02-28T04:29:51;98020.44;;;-3.24;100.00
498;BME280;39559;48.630;9.162;2023-02-28T04:32:16;98016.31;;;-3.19;100.00
498;BME280;39559;48.630;9.162;2023-02-28T04:34:42;98009.69;;;-3.12;100.00
498;BME280;39559;48.630;9.162;2023-02-28T04:37:07;98012.13;;;-3.17;100.00
498;BME280;39559;48.630;9.162;2023-02-28T04:39:35;98003.34;;;-2.90;100.00
498;BME280;39559;48.630;9.162;2023-02-28T04:42:02;98004.50;;;-3.17;100.00
498;BME280;39559;48.630;9.162;2023-02-28T04:44:28;98012.41;;;-3.03;100.00
498;BME280;39559;48.630;9.162;2023-02-28T04:46:53;98011.63;;;-2.99;100.00
498;BME280;39559;48.630;9.162;2023-02-28T04:49:19;98011.50;;;-3.06;100.00
498;BME280;39559;48.630;9.162;2023-02-28T04:53:53;98015.56;;;-3.15;100.00
498;BME280;39559;48.630;9.162;2023-02-28T04:56:18;98017.38;;;-3.08;100.00
498;BME280;39559;48.630;9.162;2023-02-28T04:58:44;98018.16;;;-3.12;100.00
498;BME280;39559;48.630;9.162;2023-02-28T05:03:50;98013.94;;;-3.11;100.00
498;BME280;39559;48.630;9.162;2023-02-28T05:06:16;98015.03;;;-3.00;100.00
498;BME280;39559;48.630;9.162;2023-02-28T05:08:42;98016.50;;;-3.10;100.00
498;BME280;39559;48.630;9.162;2023-02-28T05:11:14;98012.16;;;-3.15;100.00
498;BME280;39559;48.630;9.162;2023-02-28T05:13:40;98018.06;;;-3.18;100.00
498;BME280;39559;48.630;9.162;2023-02-28T05:17:56;98026.53;;;-3.17;100.00
498;BME280;39559;48.630;9.162;2023-02-28T05:20:21;98027.09;;;-2.88;100.00
498;BME280;39559;48.630;9.162;2023-02-28T05:22:47;98035.06;;;-3.14;100.00
498;BME280;39559;48.630;9.162;2023-02-28T05:25:20;98031.63;;;-3.16;100.00
498;BME280;39559;48.630;9.162;2023-02-28T05:27:47;98024.91;;;-3.14;100.00
498;BME280;39559;48.630;9.162;2023-02-28T05:30:13;98033.34;;;-3.15;100.00
498;BME280;39559;48.630;9.162;2023-02-28T05:32:40;98035.31;;;-3.01;100.00
498;BME280;39559;48.630;9.162;2023-02-28T05:35:09;98036.78;;;-3.11;100.00
498;BME280;39559;48.630;9.162;2023-02-28T05:37:35;98038.63;;;-3.04;100.00
498;BME280;39559;48.630;9.162;2023-02-28T05:41:59;98038.63;;;-3.05;100.00
498;BME280;39559;48.630;9.162;2023-02-28T05:44:25;98043.56;;;-3.12;100.00
498;BME280;39559;48.630;9.162;2023-02-28T05:46:50;98042.03;;;-3.05;100.00
498;BME280;39559;48.630;9.162;2023-02-28T05:49:15;98033.59;;;-3.02;100.00
498;BME280;39559;48.630;9.162;2023-02-28T05:51:41;98037.91;;;-3.00;100.00
498;BME280;39559;48.630;9.162;2023-02-28T05:54:07;98028.66;;;-2.96;100.00
498;BME280;39559;48.630;9.162;2023-02-28T05:56:33;98037.75;;;-3.06;100.00
498;BME280;39559;48.630;9.162;2023-02-28T05:59:00;98035.38;;;-2.98;100.00
498;BME280;39559;48.630;9.162;2023-02-28T06:01:35;98035.00;;;-3.18;100.00
498;BME280;39559;48.630;9.162;2023-02-28T06:06:02;98037.00;;;-3.00;100.00
498;BME280;39559;48.630;9.162;2023-02-28T06:08:27;98034.69;;;-2.90;100.00
498;BME280;39559;48.630;9.162;2023-02-28T06:10:53;98037.44;;;-2.79;100.00
498;BME280;39559;48.630;9.162;2023-02-28T06:13:18;98032.09;;;-2.93;100.00
498;BME280;39559;48.630;9.162;2023-02-28T06:15:44;98040.59;;;-2.92;100.00
498;BME280;39559;48.630;9.162;2023-02-28T06:18:09;98042.28;;;-2.91;100.00
498;BME280;39559;48.630;9.162;2023-02-28T06:20:35;98039.66;;;-2.96;100.00
498;BME280;39559;48.630;9.162;2023-02-28T06:23:01;98050.56;;;-3.01;100.00
498;BME280;39559;48.630;9.162;2023-02-28T06:25:27;98054.72;;;-3.05;100.00
498;BME280;39559;48.630;9.162;2023-02-28T06:30:05;98060.88;;;-2.94;100.00
498;BME280;39559;48.630;9.162;2023-02-28T06:32:30;98059.19;;;-2.93;100.00
498;BME280;39559;48.630;9.162;2023-02-28T06:34:56;98063.69;;;-2.80;100.00
498;BME280;39559;48.630;9.162;2023-02-28T06:37:23;98059.59;;;-2.72;100.00
498;BME280;39559;48.630;9.162;2023-02-28T06:39:51;98065.13;;;-2.93;100.00
498;BME280;39559;48.630;9.162;2023-02-28T06:42:17;98067.75;;;-2.88;100.00
498;BME280;39559;48.630;9.162;2023-02-28T06:44:43;98055.19;;;-2.82;100.00
498;BME280;39559;48.630;9.162;2023-02-28T06:47:08;98061.19;;;-2.77;100.00
498;BME280;39559;48.630;9.162;2023-02-28T06:49:35;98061.00;;;-2.86;100.00
498;BME280;39559;48.630;9.162;2023-02-28T06:54:07;98067.19;;;-2.73;100.00
498;BME280;39559;48.630;9.162;2023-02-28T06:56:34;98067.09;;;-2.79;100.00
498;BME280;39559;48.630;9.162;2023-02-28T06:59:00;98068.84;;;-2.75;100.00
498;BME280;39559;48.630;9.162;2023-02-28T07:01:26;98071.56;;;-2.66;100.00
498;BME280;39559;48.630;9.162;2023-02-28T07:03:53;98075.78;;;-2.68;100.00
498;BME280;39559;48.630;9.162;2023-02-28T07:06:20;98079.38;;;-2.57;100.00
498;BME280;39559;48.630;9.162;2023-02-28T07:08:48;98080.28;;;-2.53;100.00
498;BME280;39559;48.630;9.162;2023-02-28T07:11:14;98078.47;;;-2.60;100.00
498;BME280;39559;48.630;9.162;2023-02-28T07:13:40;98076.81;;;-2.57;100.00
498;BME280;39559;48.630;9.162;2023-02-28T07:18:10;98079.34;;;-2.60;100.00
498;BME280;39559;48.630;9.162;2023-02-28T07:20:35;98071.75;;;-2.58;100.00
498;BME280;39559;48.630;9.162;2023-02-28T07:23:01;98082.72;;;-2.59;100.00
498;BME280;39559;48.630;9.162;2023-02-28T07:25:27;98088.75;;;-2.54;100.00
498;BME280;39559;48.630;9.162;2023-02-28T07:27:54;98091.34;;;-2.53;100.00
498;BME280;39559;48.630;9.162;2023-02-28T07:30:19;98096.34;;;-2.56;100.00
498;BME280;39559;48.630;9.162;2023-02-28T07:32:45;98086.63;;;-2.33;99.92
498;BME280;39559;48.630;9.162;2023-02-28T07:35:11;98097.44;;;-2.43;100.00
498;BME280;39559;48.630;9.162;2023-02-28T07:37:36;98091.75;;;-2.29;98.90
498;BME280;39559;48.630;9.162;2023-02-28T07:42:12;98083.78;;;-2.48;100.00
498;BME280;39559;48.630;9.162;2023-02-28T07:44:39;98085.75;;;-2.35;98.68
498;BME280;39559;48.630;9.162;2023-02-28T07:47:07;98095.72;;;-2.44;100.00
498;BME280;39559;48.630;9.162;2023-02-28T07:49:35;98089.09;;;-2.36;100.00
498;BME280;39559;48.630;9.162;2023-02-28T07:52:01;98088.28;;;-2.35;100.00
498;BME280;39559;48.630;9.162;2023-02-28T07:54:26;98089.09;;;-2.36;100.00
498;BME280;39559;48.630;9.162;2023-02-28T07:56:52;98085.13;;;-2.21;100.00
498;BME280;39559;48.630;9.162;2023-02-28T07:59:17;98088.91;;;-1.98;100.00
498;BME280;39559;48.630;9.162;2023-02-28T08:01:43;98091.44;;;-1.99;97.59
498;BME280;39559;48.630;9.162;2023-02-28T08:06:20;98095.53;;;-2.09;100.00
498;BME280;39559;48.630;9.162;2023-02-28T08:08:46;98097.16;;;-2.13;100.00
498;BME280;39559;48.630;9.162;2023-02-28T08:11:12;98098.97;;;-2.05;99.72
498;BME280;39559;48.630;9.162;2023-02-28T08:13:38;98104.16;;;-1.99;99.27
498;BME280;39559;48.630;9.162;2023-02-28T08:16:03;98103.16;;;-2.09;100.00
498;BME280;39559;48.630;9.162;2023-02-28T08:18:29;98106.84;;;-1.90;97.19
498;BME280;39559;48.630;9.162;2023-02-28T08:20:54;98105.22;;;-1.86;97.70
498;BME280;39559;48.630;9.162;2023-02-28T08:23:20;98102.09;;;-1.70;98.17
498;BME280;39559;48.630;9.162;2023-02-28T08:25:53;98114.56;;;-1.87;96.00
498;BME280;39559;48.630;9.162;2023-02-28T08:30:18;98099.31;;;-1.84;96.33
498;BME280;39559;48.630;9.162;2023-02-28T08:32:44;98102.75;;;-1.83;97.26
498;BME280;39559;48.630;9.162;2023-02-28T08:35:09;98103.25;;;-2.03;95.34
498;BME280;39559;48.630;9.162;2023-02-28T08:37:35;98101.84;;;-1.85;97.97
498;BME280;39559;48.630;9.162;2023-02-28T08:40:01;98101.78;;;-1.88;96.98
498;BME280;39559;48.630;9.162;2023-02-28T08:42:27;98101.22;;;-1.72;95.74
498;BME280;39559;48.630;9.162;2023-02-28T08:44:52;98102.03;;;-1.73;94.53
498;BME280;39559;48.630;9.162;2023-02-28T08:47:18;98098.88;;;-1.57;95.32
498;BME280;39559;48.630;9.162;2023-02-28T08:49:44;98105.63;;;-1.60;93.32
498;BME280;39559;48.630;9.162;2023-02-28T08:54:20;98112.34;;;-1.64;92.11
498;BME280;39559;48.630;9.162;2023-02-28T08:56:46;98121.13;;;-1.46;93.67
498;BME280;39559;48.630;9.162;2023-02-28T08:59:12;98122.53;;;-1.64;93.43
498;BME280;39559;48.630;9.162;2023-02-28T09:01:38;98117.72;;;-1.48;93.62
498;BME280;39559;48.630;9.162;2023-02-28T09:04:04;98110.28;;;-1.33;92.85
498;BME280;39559;48.630;9.162;2023-02-28T09:06:34;98106.13;;;-1.28;92.71
498;BME280;39559;48.630;9.162;2023-02-28T09:09:00;98118.91;;;-1.25;89.11
498;BME280;39559;48.630;9.162;2023-02-28T09:11:27;98122.00;;;-1.47;88.81
498;BME280;39559;48.630;9.162;2023-02-28T09:13:53;98127.19;;;-1.40;89.96
498;BME280;39559;48.630;9.162;2023-02-28T09:18:23;98127.34;;;-1.29;88.74
498;BME280;39559;48.630;9.162;2023-02-28T09:20:48;98132.22;;;-1.43;87.75
498;BME280;39559;48.630;9.162;2023-02-28T09:23:16;98138.06;;;-1.50;87.74
498;BME280;39559;48.630;9.162;2023-02-28T09:25:49;98133.16;;;-1.38;89.30
498;BME280;39559;48.630;9.162;2023-02-28T09:28:16;98132.47;;;-1.26;87.55
498;BME280;39559;48.630;9.162;2023-02-28T09:30:50;98132.59;;;-1.17;88.67
498;BME280;39559;48.630;9.162;2023-02-28T09:33:17;98136.06;;;-1.14;86.59
498;BME280;39559;48.630;9.162;2023-02-28T09:35:46;98139.94;;;-1.40;85.45
498;BME280;39559;48.630;9.162;2023-02-28T09:38:12;98129.84;;;-1.32;84.64
498;BME280;39559;48.630;9.162;2023-02-28T09:42:31;98133.22;;;-1.33;85.64
498;BME280;39559;48.630;9.162;2023-02-28T09:45:00;98141.84;;;-1.25;85.31
498;BME280;39559;48.630;9.162;2023-02-28T09:47:32;98141.88;;;-1.23;84.88
498;BME280;39559;48.630;9.162;2023-02-28T09:50:06;98142.78;;;-1.17;86.48
498;BME280;39559;48.630;9.162;2023-02-28T09:52:37;98142.94;;;-1.09;86.25
498;BME280;39559;48.630;9.162;2023-02-28T09:55:45;98138.81;;;-0.99;84.17
498;BME280;39559;48.630;9.162;2023-02-28T09:58:26;98143.75;;;-1.10;84.70
498;BME280;39559;48.630;9.162;2023-02-28T10:01:06;98149.81;;;-1.03;85.48
498;BME280;39559;48.630;9.162;2023-02-28T10:06:37;98151.72;;;-0.87;83.01
498;BME280;39559;48.630;9.162;2023-02-28T10:09:33;98153.59;;;-0.73;81.41
498;BME280;39559;48.630;9.162;2023-02-28T10:12:03;98161.38;;;-0.63;83.04
498;BME280;39559;48.630;9.162;2023-02-28T10:14:33;98152.00;;;-0.65;82.54
498;BME280;39559;48.630;9.162;2023-02-28T10:17:14;98165.38;;;-0.83;81.69
498;BME280;39559;48.630;9.162;2023-02-28T10:22:23;98160.31;;;-0.82;83.07
498;BME280;39559;48.630;9.162;2023-02-28T10:24:53;98158.91;;;-0.56;81.54
498;BME280;39559;48.630;9.162;2023-02-28T10:27:24;98169.00;;;-0.66;81.08
498;BME280;39559;48.630;9.162;2023-02-28T10:30:30;98166.66;;;-0.49;79.73
498;BME280;39559;48.630;9.162;2023-02-28T10:32:56;98166.88;;;-0.32;78.91
498;BME280;39559;48.630;9.162;2023-02-28T10:35:24;98162.56;;;-0.37;80.02
498;BME280;39559;48.630;9.162;2023-02-28T10:37:54;98157.59;;;-0.25;80.50
498;BME280;39559;48.630;9.162;2023-02-28T10:42:59;98158.72;;;0.00;76.27
498;BME280;39559;48.630;9.162;2023-02-28T10:45:26;98162.25;;;0.16;78.49
498;BME280;39559;48.630;9.162;2023-02-28T10:54:36;98156.25;;;0.12;76.98
498;BME280;39559;48.630;9.162;2023-02-28T10:57:35;98153.03;;;0.30;76.30
498;BME280;39559;48.630;9.162;2023-02-28T11:00:22;98159.19;;;0.54;76.00
498;BME280;39559;48.630;9.162;2023-02-28T11:02:50;98148.94;;;0.52;74.55
498;BME280;39559;48.630;9.162;2023-02-28T11:05:33;98150.69;;;0.55;76.22
498;BME280;39559;48.630;9.162;2023-02-28T11:10:31;98151.66;;;0.69;74.34
498;BME280;39559;48.630;9.162;2023-02-28T11:13:00;98154.81;;;0.39;72.49
498;BME280;39559;48.630;9.162;2023-02-28T11:15:28;98157.56;;;0.65;74.36
498;BME280;39559;48.630;9.162;2023-02-28T11:19:01;98166.13;;;0.69;74.61
498;BME280;39559;48.630;9.162;2023-02-28T11:21:30;98171.88;;;0.45;73.07
498;BME280;39559;48.630;9.162;2023-02-28T11:24:21;98170.38;;;0.67;73.62
498;BME280;39559;48.630;9.162;2023-02-28T11:26:51;98167.81;;;0.68;72.63
498;BME280;39559;48.630;9.162;2023-02-28T11:29:20;98158.31;;;0.52;72.93
498;BME280;39559;48.630;9.162;2023-02-28T11:34:37;98158.88;;;1.33;72.74
498;BME280;39559;48.630;9.162;2023-02-28T11:37:05;98154.59;;;1.29;72.47
498;BME280;39559;48.630;9.162;2023-02-28T11:39:35;98154.47;;;1.11;71.95
498;BME280;39559;48.630;9.162;2023-02-28T11:45:50;98131.78;;;2.97;70.64
498;BME280;39559;48.630;9.162;2023-02-28T11:51:33;98121.06;;;5.12;61.40
498;BME280;39559;48.630;9.162;2023-02-28T11:54:17;98114.88;;;5.98;57.64
498;BME280;39559;48.630;9.162;2023-02-28T11:56:57;98123.31;;;5.39;56.35
498;BME280;39559;48.630;9.162;2023-02-28T11:59:56;98116.28;;;6.21;54.39
498;BME280;39559;48.630;9.162;2023-02-28T12:07:03;98125.41;;;5.80;55.05
498;BME280;39559;48.630;9.162;2023-02-28T12:09:46;98118.88;;;5.51;52.52
498;BME280;39559;48.630;9.162;2023-02-28T12:20:57;98123.28;;;2.75;59.70
498;BME280;39559;48.630;9.162;2023-02-28T12:30:49;98113.28;;;4.17;58.35
498;BME280;39559;48.630;9.162;2023-02-28T12:33:17;98107.56;;;3.71;57.51
498;BME280;39559;48.630;9.162;2023-02-28T12:35:58;98118.13;;;2.83;59.48
498;BME280;39559;48.630;9.162;2023-02-28T12:38:28;98117.31;;;2.72;60.54
498;BME280;39559;48.630;9.162;2023-02-28T12:41:00;98115.53;;;2.98;59.89
498;BME280;39559;48.630;9.162;2023-02-28T12:43:34;98104.97;;;3.78;59.59
498;BME280;39559;48.630;9.162;2023-02-28T12:46:30;98099.91;;;3.66;59.28
498;BME280;39559;48.630;9.162;2023-02-28T12:48:56;98095.91;;;2.91;61.26
498;BME280;39559;48.630;9.162;2023-02-28T12:51:24;98094.47;;;4.17;59.10
498;BME280;39559;48.630;9.162;2023-02-28T12:57:34;98093.94;;;3.61;58.97
498;BME280;39559;48.630;9.162;2023-02-28T13:00:08;98092.66;;;4.25;59.36
498;BME280;39559;48.630;9.162;2023-02-28T13:08:47;98080.19;;;4.81;55.69
498;BME280;39559;48.630;9.162;2023-02-28T13:13:57;98078.47;;;4.80;56.51
498;BME280;39559;48.630;9.162;2023-02-28T13:18:44;98073.09;;;5.03;55.41
498;BME280;39559;48.630;9.162;2023-02-28T13:21:26;98076.72;;;5.56;55.34
498;BME280;39559;48.630;9.162;2023-02-28T13:34:41;98070.81;;;4.74;55.28
498;BME280;39559;48.630;9.162;2023-02-28T13:47:42;98065.34;;;5.06;55.27
498;BME280;39559;48.630;9.162;2023-02-28T13:50:31;98083.25;;;5.17;55.97
498;BME280;39559;48.630;9.162;2023-02-28T13:58:53;98081.56;;;4.21;57.89
498;BME280;39559;48.630;9.162;2023-02-28T14:01:51;98071.31;;;4.18;57.38
498;BME280;39559;48.630;9.162;2023-02-28T14:06:53;98060.97;;;4.28;57.68
498;BME280;39559;48.630;9.162;2023-02-28T14:09:30;98068.22;;;4.77;56.38
498;BME280;39559;48.630;9.162;2023-02-28T14:11:57;98064.22;;;5.29;55.75
498;BME280;39559;48.630;9.162;2023-02-28T14:17:14;98058.56;;;4.96;54.55
498;BME280;39559;48.630;9.162;2023-02-28T14:19:44;98063.59;;;5.10;54.92
498;BME280;39559;48.630;9.162;2023-02-28T14:27:53;98064.81;;;4.73;56.25
498;BME280;39559;48.630;9.162;2023-02-28T14:33:27;98057.84;;;4.86;55.18
498;BME280;39559;48.630;9.162;2023-02-28T14:38:43;98067.25;;;4.86;57.44
498;BME280;39559;48.630;9.162;2023-02-28T14:41:38;98074.97;;;4.87;56.16
498;BME280;39559;48.630;9.162;2023-02-28T14:44:20;98057.53;;;5.11;55.62
498;BME280;39559;48.630;9.162;2023-02-28T14:47:00;98068.06;;;4.92;54.93
498;BME280;39559;48.630;9.162;2023-02-28T14:49:36;98062.66;;;5.14;56.11
498;BME280;39559;48.630;9.162;2023-02-28T14:54:46;98061.13;;;5.67;57.21
498;BME280;39559;48.630;9.162;2023-02-28T14:57:31;98063.50;;;5.17;54.57
498;BME280;39559;48.630;9.162;2023-02-28T15:02:39;98062.69;;;5.11;56.56
498;BME280;39559;48.630;9.162;2023-02-28T15:07:42;98080.84;;;5.00;55.58
498;BME280;39559;48.630;9.162;2023-02-28T15:12:37;98067.94;;;5.05;54.76
498;BME280;39559;48.630;9.162;2023-02-28T15:15:06;98066.28;;;4.99;55.81
498;BME280;39559;48.630;9.162;2023-02-28T15:23:55;98077.50;;;4.93;56.26
498;BME280;39559;48.630;9.162;2023-02-28T15:26:27;98073.47;;;4.65;57.25
498;BME280;39559;48.630;9.162;2023-02-28T15:28:59;98076.88;;;4.67;57.80
498;BME280;39559;48.630;9.162;2023-02-28T15:31:31;98075.97;;;4.71;57.52
498;BME280;39559;48.630;9.162;2023-02-28T15:34:02;98080.34;;;4.64;56.98
498;BME280;39559;48.630;9.162;2023-02-28T15:36:33;98088.03;;;4.66;56.72
498;BME280;39559;48.630;9.162;2023-02-28T15:39:16;98084.13;;;4.21;57.26
498;BME280;39559;48.630;9.162;2023-02-28T15:45:33;98083.28;;;4.21;56.62
498;BME280;39559;48.630;9.162;2023-02-28T15:48:03;98079.19;;;3.89;57.81
498;BME280;39559;48.630;9.162;2023-02-28T15:50:28;98079.19;;;3.94;57.96
498;BME280;39559;48.630;9.162;2023-02-28T15:52:54;98080.09;;;3.82;58.83
498;BME280;39559;48.630;9.162;2023-02-28T15:55:24;98079.41;;;3.49;59.91
498;BME280;39559;48.630;9.162;2023-02-28T15:57:54;98084.56;;;3.51;59.69
498;BME280;39559;48.630;9.162;2023-02-28T16:00:22;98082.78;;;3.65;60.38
498;BME280;39559;48.630;9.162;2023-02-28T16:02:50;98090.56;;;3.45;61.65
498;BME280;39559;48.630;9.162;2023-02-28T16:07:02;98088.00;;;3.46;59.95
498;BME280;39559;48.630;9.162;2023-02-28T16:09:29;98084.56;;;3.51;58.56
498;BME280;39559;48.630;9.162;2023-02-28T16:11:59;98082.09;;;3.20;61.27
498;BME280;39559;48.630;9.162;2023-02-28T16:14:28;98086.38;;;3.29;61.32
498;BME280;39559;48.630;9.162;2023-02-28T16:17:02;98084.72;;;3.09;61.40
498;BME280;39559;48.630;9.162;2023-02-28T16:19:28;98087.34;;;2.92;63.67
498;BME280;39559;48.630;9.162;2023-02-28T16:21:54;98090.72;;;3.06;61.92
498;BME280;39559;48.630;9.162;2023-02-28T16:24:20;98092.44;;;3.03;62.52
498;BME280;39559;48.630;9.162;2023-02-28T16:26:47;98094.16;;;3.01;63.25
498;BME280;39559;48.630;9.162;2023-02-28T16:30:47;98099.31;;;2.85;62.07
498;BME280;39559;48.630;9.162;2023-02-28T16:33:12;98104.41;;;2.95;62.63
498;BME280;39559;48.630;9.162;2023-02-28T16:35:38;98107.00;;;2.75;64.57
498;BME280;39559;48.630;9.162;2023-02-28T16:38:03;98113.03;;;2.61;64.73
498;BME280;39559;48.630;9.162;2023-02-28T16:40:33;98118.16;;;2.60;65.85
498;BME280;39559;48.630;9.162;2023-02-28T16:43:00;98107.91;;;2.46;65.98
498;BME280;39559;48.630;9.162;2023-02-28T16:45:27;98111.31;;;2.36;66.83
498;BME280;39559;48.630;9.162;2023-02-28T16:47:54;98107.91;;;2.21;67.00
498;BME280;39559;48.630;9.162;2023-02-28T16:50:22;98110.47;;;2.34;64.49
498;BME280;39559;48.630;9.162;2023-02-28T16:54:46;98116.41;;;2.05;66.38
498;BME280;39559;48.630;9.162;2023-02-28T16:57:21;98125.78;;;1.92;68.23
498;BME280;39559;48.630;9.162;2023-02-28T16:59:49;98130.88;;;1.80;69.04
498;BME280;39559;48.630;9.162;2023-02-28T17:02:18;98130.06;;;1.96;66.62
498;BME280;39559;48.630;9.162;2023-02-28T17:04:45;98124.09;;;2.02;66.13
498;BME280;39559;48.630;9.162;2023-02-28T17:07:12;98132.56;;;1.75;68.36
498;BME280;39559;48.630;9.162;2023-02-28T17:09:39;98135.09;;;1.61;69.62